Time;durP1;ratioP1;P1;durP2;ratioP2;P2;SDS_P1;SDS_P2;PMS_P1;PMS_P2;Temp;Humidity;BMP_temperature;BMP_pressure;BME280_temperature;BME280_humidity;BME280_pressure;Samples;Min_cycle;Max_cycle;Signal;HPM_P1;HPM_P2
2022/11/29 00:01:08;;;;;;;27.10;14.65;;;;;;;7.73;100.00;100409.03;8287669;28;20038;-53
2022/11/29 00:05:09;;;;;;;26.30;14.30;;;;;;;7.74;100.00;100408.91;8289616;28;20034;-52
2022/11/29 00:09:11;;;;;;;24.35;13.88;;;;;;;7.84;100.00;100406.34;8289481;28;20129;-51
2022/11/29 00:13:12;;;;;;;28.27;14.88;;;;;;;7.85;100.00;100414.28;8286468;28;20496;-54
2022/11/29 00:17:12;;;;;;;33.30;14.00;;;;;;;7.82;100.00;100408.28;8287845;28;20496;-54
2022/11/29 00:21:13;;;;;;;28.27;13.43;;;;;;;7.78;100.00;100412.22;8288979;28;20136;-53
2022/11/29 00:25:14;;;;;;;25.05;13.50;;;;;;;7.72;100.00;100410.88;8288888;28;20132;-51
2022/11/29 00:29:14;;;;;;;28.92;14.90;;;;;;;7.65;100.00;100412.34;8288655;28;20380;-53
2022/11/29 00:33:15;;;;;;;24.95;13.82;;;;;;;7.67;100.00;100410.41;8287880;28;20424;-56
2022/11/29 00:37:15;;;;;;;27.50;14.30;;;;;;;7.64;100.00;100420.56;8288545;28;20038;-53
2022/11/29 00:41:16;;;;;;;28.95;14.23;;;;;;;7.71;100.00;100411.00;8288674;28;20037;-51
2022/11/29 00:45:16;;;;;;;26.15;14.40;;;;;;;7.72;100.00;100418.94;8288508;28;20395;-53
2022/11/29 00:49:17;;;;;;;23.77;14.30;;;;;;;7.71;100.00;100417.25;8288959;28;20034;-52
2022/11/29 00:53:18;;;;;;;26.98;13.77;;;;;;;7.62;100.00;100417.97;8287757;28;20053;-55
2022/11/29 00:57:18;;;;;;;29.23;14.55;;;;;;;7.69;100.00;100419.19;8287116;28;20046;-52
2022/11/29 01:01:19;;;;;;;25.92;14.65;;;;;;;7.76;100.00;100415.03;8287609;28;20046;-51
2022/11/29 01:05:19;;;;;;;24.73;14.88;;;;;;;7.79;100.00;100420.19;8288264;28;20046;-52
2022/11/29 01:09:20;;;;;;;33.72;14.60;;;;;;;7.83;100.00;100424.31;8287001;28;20169;-54
2022/11/29 01:13:20;;;;;;;25.38;13.73;;;;;;;7.90;100.00;100417.44;8285779;28;20088;-52
2022/11/29 01:17:21;;;;;;;22.35;13.20;;;;;;;7.89;100.00;100421.13;8292828;28;20511;-55
2022/11/29 01:21:23;;;;;;;23.60;14.43;;;;;;;7.98;100.00;100420.38;8294296;28;20033;-52
2022/11/29 01:25:24;;;;;;;25.45;14.10;;;;;;;7.99;100.00;100421.19;8294496;28;20543;-52
2022/11/29 01:29:24;;;;;;;26.75;14.40;;;;;;;7.99;100.00;100422.06;8294586;28;20479;-52
2022/11/29 01:33:25;;;;;;;24.10;13.90;;;;;;;7.98;100.00;100416.81;8294174;28;20045;-54
2022/11/29 01:37:27;;;;;;;25.63;14.07;;;;;;;8.02;100.00;100421.81;8294464;28;20492;-54
2022/11/29 01:41:31;;;;;;;26.98;14.70;;;;;;;8.06;100.00;100428.63;8293619;28;20034;-55
2022/11/29 01:45:36;;;;;;;31.05;14.18;;;;;;;8.14;100.00;100429.88;8293425;28;20037;-54
2022/11/29 01:49:41;;;;;;;23.98;14.55;;;;;;;8.26;100.00;100440.50;8291628;28;20049;-55
2022/11/29 01:53:42;;;;;;;33.75;13.85;;;;;;;8.40;100.00;100431.25;8293678;28;20475;-51
2022/11/29 01:57:43;;;;;;;36.17;14.50;;;;;;;8.53;100.00;100432.78;8292862;28;20042;-52
2022/11/29 02:01:44;;;;;;;36.13;14.68;;;;;;;8.61;100.00;100432.13;8292320;28;20438;-54
2022/11/29 02:05:48;;;;;;;36.28;14.32;;;;;;;8.50;100.00;100437.56;8242632;28;20439;-52
2022/11/29 02:09:48;;;;;;;31.92;14.07;;;;;;;8.44;100.00;100438.09;8226570;28;20039;-56
2022/11/29 02:14:14;;;;;;;28.75;13.98;;;;;;;8.49;100.00;100441.25;8240763;28;20046;-54
2022/11/29 02:18:28;;;;;;;39.60;14.05;;;;;;;8.51;100.00;100444.69;8287660;28;20038;-51
2022/11/29 02:22:40;;;;;;;28.10;13.95;;;;;;;8.54;100.00;100449.81;8291737;28;20041;-55
2022/11/29 02:31:48;;;;;;;35.08;14.80;;;;;;;8.67;100.00;100439.69;8344237;27;20414;-52
2022/11/29 02:36:28;;;;;;;36.35;15.02;;;;;;;8.69;100.00;100449.34;8310914;28;20044;-51
2022/11/29 02:40:59;;;;;;;34.33;14.88;;;;;;;8.67;100.00;100445.09;8315433;28;20048;-51
2022/11/29 02:45:09;;;;;;;47.05;15.93;;;;;;;8.61;100.00;100445.63;8316128;28;20041;-54
2022/11/29 02:49:40;;;;;;;40.75;14.98;;;;;;;8.65;100.00;100447.06;8315906;28;20041;-53
2022/11/29 02:53:56;;;;;;;43.50;16.23;;;;;;;8.72;100.00;100448.25;8315747;28;20176;-55
2022/11/29 02:58:07;;;;;;;43.78;16.35;;;;;;;8.78;100.00;100458.53;8340728;28;20371;-52
2022/11/29 03:07:11;;;;;;;39.78;15.30;;;;;;;8.82;100.00;100460.81;8348599;27;20400;-54
2022/11/29 03:11:45;;;;;;;45.15;18.48;;;;;;;8.88;100.00;100471.06;8347989;28;20064;-52
2022/11/29 03:15:58;;;;;;;50.00;18.42;;;;;;;8.95;100.00;100464.19;8334522;28;20568;-52
2022/11/29 03:20:35;;;;;;;57.45;19.58;;;;;;;8.99;100.00;100472.84;8348944;28;20053;-50
2022/11/29 03:24:51;;;;;;;50.33;20.73;;;;;;;9.03;100.00;100479.69;8346534;28;20056;-52
2022/11/29 03:29:08;;;;;;;58.58;21.20;;;;;;;9.05;100.00;100477.69;8348391;28;20061;-52
2022/11/29 03:33:19;;;;;;;58.05;20.75;;;;;;;9.08;100.00;100485.53;8348662;28;20533;-51
2022/11/29 03:37:27;;;;;;;54.00;20.10;;;;;;;9.09;100.00;100487.25;8343603;28;20060;-52
2022/11/29 03:41:51;;;;;;;63.80;21.25;;;;;;;9.13;100.00;100496.78;8348438;28;20525;-52
2022/11/29 03:46:04;;;;;;;62.55;20.15;;;;;;;9.17;100.00;100492.81;8346336;28;20044;-55
2022/11/29 03:50:12;;;;;;;56.40;21.23;;;;;;;9.14;100.00;100493.09;8347712;28;20048;-52
2022/11/29 03:54:20;;;;;;;69.65;21.00;;;;;;;9.09;100.00;100501.56;8348107;28;20586;-55
2022/11/29 03:58:47;;;;;;;63.97;20.48;;;;;;;9.07;100.00;100503.56;8348188;28;20037;-50
2022/11/29 04:03:24;;;;;;;62.15;22.40;;;;;;;9.09;100.00;100512.38;8346961;28;20048;-54
2022/11/29 04:07:50;;;;;;;62.72;21.13;;;;;;;9.07;100.00;100510.78;8347499;28;20261;-54
2022/11/29 04:12:24;;;;;;;57.63;21.67;;;;;;;9.10;100.00;100513.22;8345921;28;20431;-52
2022/11/29 04:21:18;;;;;;;58.53;21.40;;;;;;;9.11;100.00;100521.19;8346959;27;20384;-53
2022/11/29 04:25:58;;;;;;;68.18;23.33;;;;;;;9.14;100.00;100537.09;8311842;28;20175;-51
2022/11/29 04:30:14;;;;;;;81.53;25.30;;;;;;;9.20;100.00;100535.72;8347319;28;20128;-52
2022/11/29 04:34:49;;;;;;;75.50;25.17;;;;;;;9.20;100.00;100533.88;8325716;28;20038;-54
2022/11/29 04:39:30;;;;;;;87.45;25.15;;;;;;;9.22;100.00;100533.75;8369816;28;20040;-55
2022/11/29 04:44:10;;;;;;;85.03;26.38;;;;;;;9.20;100.00;100546.50;8316003;28;20053;-52
2022/11/29 04:56:49;;;;;;;70.13;24.17;;;;;;;9.17;100.00;100546.78;8401111;27;20375;-50
2022/11/29 05:01:17;;;;;;;73.88;25.08;;;;;;;9.12;100.00;100560.66;8377912;28;20075;-56
2022/11/29 05:05:29;;;;;;;75.40;24.83;;;;;;;9.15;100.00;100564.94;8370931;28;20037;-54
2022/11/29 05:09:54;;;;;;;81.53;24.75;;;;;;;9.15;100.00;100567.66;8365677;28;20121;-55
2022/11/29 05:14:23;;;;;;;65.18;23.95;;;;;;;9.20;100.00;100577.03;8365811;28;20044;-52
2022/11/29 05:19:03;;;;;;;80.97;25.48;;;;;;;9.20;100.00;100581.56;8392345;27;20053;-51
2022/11/29 05:23:30;;;;;;;79.15;26.15;;;;;;;9.19;100.00;100580.75;8393541;27;20048;-51
2022/11/29 05:27:44;;;;;;;77.93;25.77;;;;;;;9.24;100.00;100585.75;8397099;27;20033;-54
2022/11/29 05:32:04;;;;;;;;;;;;;;;9.31;100.00;100597.72;8396151;27;20072;-52
2022/11/29 05:36:34;;;;;;;90.80;27.88;;;;;;;9.32;100.00;100596.72;8395409;28;19947;-54
2022/11/29 05:40:49;;;;;;;93.07;29.02;;;;;;;9.31;100.00;100593.19;8398075;28;20040;-51
2022/11/29 05:44:58;;;;;;;103.07;29.90;;;;;;;9.32;100.00;100607.50;8397493;28;20044;-54
2022/11/29 05:49:38;;;;;;;104.95;30.95;;;;;;;9.30;100.00;100606.81;8397347;28;20040;-52
2022/11/29 05:53:53;;;;;;;103.05;31.15;;;;;;;9.31;100.00;100608.50;8396344;28;20037;-51
2022/11/29 05:58:03;;;;;;;106.00;31.40;;;;;;;9.29;100.00;100605.06;8391774;27;20099;-54
2022/11/29 06:11:05;;;;;;;120.75;34.85;;;;;;;9.31;100.00;100622.88;8316609;28;20379;-54
2022/11/29 06:15:36;;;;;;;126.75;31.75;;;;;;;9.34;100.00;100627.13;8314890;28;20787;-56
2022/11/29 06:24:29;;;;;;;104.82;30.65;;;;;;;9.31;100.00;100636.34;8403989;27;20426;-54
2022/11/29 06:28:56;;;;;;;103.90;30.70;;;;;;;9.30;100.00;100639.19;8393291;28;20071;-54
2022/11/29 06:33:17;;;;;;;116.00;31.23;;;;;;;9.32;100.00;100648.84;8389250;27;20054;-53
2022/11/29 06:37:24;;;;;;;100.20;30.83;;;;;;;9.37;100.00;100652.00;8448636;27;20106;-55
2022/11/29 06:41:25;;;;;;;113.55;32.35;;;;;;;9.35;100.00;100653.13;8449420;27;20047;-53
2022/11/29 06:45:26;;;;;;;115.10;33.55;;;;;;;9.33;100.00;100644.31;8444550;27;20064;-54
2022/11/29 06:49:31;;;;;;;128.93;33.22;;;;;;;9.35;100.00;100663.91;8396191;27;20067;-53
2022/11/29 06:58:31;;;;;;;143.07;37.75;;;;;;;9.37;100.00;100664.66;8355541;27;20471;-54
2022/11/29 07:03:01;;;;;;;153.23;38.67;;;;;;;9.38;100.00;100669.03;8324470;28;20038;-55
2022/11/29 07:07:01;;;;;;;151.80;38.75;;;;;;;9.35;100.00;100675.56;8297829;28;20042;-53
2022/11/29 07:11:02;;;;;;;138.25;36.10;;;;;;;9.37;100.00;100678.13;8300124;28;20045;-53
2022/11/29 07:15:03;;;;;;;170.75;37.45;;;;;;;9.37;100.00;100684.38;8319047;28;20175;-55
2022/11/29 07:19:35;;;;;;;158.05;38.03;;;;;;;9.38;100.00;100690.63;8308661;28;20042;-55
2022/11/29 07:23:45;;;;;;;176.85;38.35;;;;;;;9.37;100.00;100689.75;8306160;28;20046;-55
2022/11/29 07:28:04;;;;;;;159.45;41.20;;;;;;;9.36;100.00;100704.25;8290213;28;20423;-54
2022/11/29 07:32:27;;;;;;;160.10;39.45;;;;;;;9.37;100.00;100711.34;8318342;28;20041;-55
2022/11/29 07:36:39;;;;;;;166.07;38.08;;;;;;;9.38;100.00;100706.81;8273175;28;20125;-54
2022/11/29 07:41:07;;;;;;;175.98;38.75;;;;;;;9.37;100.00;100715.91;8253802;28;20035;-55
2022/11/29 07:45:21;;;;;;;177.93;38.88;;;;;;;9.39;100.00;100730.09;8281898;28;20077;-53
2022/11/29 07:49:21;;;;;;;169.73;39.07;;;;;;;9.39;100.00;100727.41;8277892;28;20038;-54
2022/11/29 07:53:23;;;;;;;158.43;37.65;;;;;;;9.40;100.00;100726.44;8285424;28;20053;-54
2022/11/29 07:57:23;;;;;;;157.02;40.40;;;;;;;9.41;100.00;100733.53;8300768;28;20107;-54
2022/11/29 08:01:24;;;;;;;144.40;38.65;;;;;;;9.40;100.00;100739.94;8319467;28;20038;-55
2022/11/29 08:05:24;;;;;;;159.63;39.60;;;;;;;9.39;100.00;100732.81;8317004;28;20045;-54
2022/11/29 08:09:25;;;;;;;150.73;38.88;;;;;;;9.40;100.00;100742.63;8295479;28;20041;-52
2022/11/29 08:13:25;;;;;;;133.38;36.85;;;;;;;9.39;100.00;100749.00;8296491;28;20042;-53
2022/11/29 08:17:26;;;;;;;133.48;38.33;;;;;;;9.38;100.00;100744.59;8295662;28;20042;-51
2022/11/29 08:21:27;;;;;;;142.10;35.90;;;;;;;9.38;100.00;100750.00;8310628;28;20048;-53
2022/11/29 08:25:28;;;;;;;126.82;35.05;;;;;;;9.40;100.00;100761.53;8295470;28;20117;-51
2022/11/29 08:29:29;;;;;;;141.77;36.53;;;;;;;9.42;100.00;100768.50;8315002;28;20042;-53
2022/11/29 08:33:30;;;;;;;138.77;37.75;;;;;;;9.43;100.00;100763.97;8312598;28;20038;-54
2022/11/29 08:37:30;;;;;;;124.72;35.50;;;;;;;9.44;100.00;100760.28;8295065;28;20034;-54
2022/11/29 08:41:31;;;;;;;131.43;37.58;;;;;;;9.45;100.00;100764.69;8294975;28;20081;-55
2022/11/29 08:45:32;;;;;;;124.45;35.92;;;;;;;9.46;100.00;100769.13;8294647;28;20555;-52
2022/11/29 08:49:32;;;;;;;134.40;36.50;;;;;;;9.45;100.00;100772.78;8296047;28;20411;-54
2022/11/29 08:53:40;;;;;;;138.77;36.85;;;;;;;9.48;100.00;100778.78;8291804;28;20037;-54
2022/11/29 08:57:40;;;;;;;133.73;35.05;;;;;;;9.50;100.00;100787.63;8278953;28;20438;-56
2022/11/29 09:01:41;;;;;;;121.90;36.85;;;;;;;9.50;100.00;100781.34;8317227;28;20114;-55
2022/11/29 09:05:42;;;;;;;115.47;35.03;;;;;;;9.49;100.00;100790.44;8283929;28;20088;-53
2022/11/29 09:09:43;;;;;;;118.05;34.20;;;;;;;9.50;100.00;100793.03;8293958;28;20446;-55
2022/11/29 09:13:45;;;;;;;121.60;36.35;;;;;;;9.52;100.00;100801.00;8269294;28;20038;-55
2022/11/29 09:17:46;;;;;;;138.15;37.58;;;;;;;9.52;100.00;100806.38;8278603;28;20042;-55
2022/11/29 09:21:46;;;;;;;128.85;35.75;;;;;;;9.53;100.00;100808.97;8293553;28;20112;-55
2022/11/29 09:25:48;;;;;;;122.38;35.30;;;;;;;9.55;100.00;100814.22;8293227;28;20041;-54
2022/11/29 09:29:49;;;;;;;127.13;35.63;;;;;;;9.57;100.00;100814.94;8313517;28;20498;-55
2022/11/29 09:33:49;;;;;;;135.68;37.20;;;;;;;9.56;100.00;100819.50;8299468;28;20408;-55
2022/11/29 09:37:50;;;;;;;134.50;36.38;;;;;;;9.57;100.00;100826.59;8261026;28;20050;-54
2022/11/29 09:42:18;;;;;;;124.43;37.20;;;;;;;9.58;100.00;100831.00;8260755;28;20034;-52
2022/11/29 09:46:35;;;;;;;124.50;34.47;;;;;;;9.64;100.00;100835.06;8292333;28;20041;-55
2022/11/29 09:50:41;;;;;;;130.82;35.33;;;;;;;9.58;100.00;100839.09;8271821;28;20038;-55
2022/11/29 09:54:56;;;;;;;123.50;36.47;;;;;;;9.56;100.00;100833.00;8304094;28;20572;-54
2022/11/29 09:59:02;;;;;;;104.85;32.78;;;;;;;9.59;100.00;100850.78;8278679;28;20034;-55
2022/11/29 10:03:18;;;;;;;110.43;33.15;;;;;;;9.58;100.00;100854.47;8280208;28;20033;-55
2022/11/29 10:07:26;;;;;;;104.88;30.27;;;;;;;9.52;100.00;100853.09;8259991;28;20041;-53
2022/11/29 10:11:38;;;;;;;97.70;28.98;;;;;;;9.51;100.00;100864.03;8278984;28;20087;-53
2022/11/29 10:15:43;;;;;;;115.45;30.15;;;;;;;9.55;100.00;100870.91;8292190;28;20107;-54
2022/11/29 10:19:49;;;;;;;109.85;31.88;;;;;;;9.59;100.00;100858.88;8292351;28;20042;-54
2022/11/29 10:23:55;;;;;;;103.45;31.30;;;;;;;9.54;100.00;100859.25;8292424;28;20689;-52
2022/11/29 10:27:56;;;;;;;101.30;30.55;;;;;;;9.59;100.00;100864.25;8298482;28;20116;-55
2022/11/29 10:31:58;;;;;;;110.30;30.73;;;;;;;9.69;100.00;100852.59;8321571;28;20033;-54
2022/11/29 10:36:03;;;;;;;103.30;29.00;;;;;;;9.75;100.00;100851.22;8289993;28;20041;-52
2022/11/29 10:40:13;;;;;;;98.43;30.23;;;;;;;9.90;100.00;100847.22;8289825;28;20095;-54
2022/11/29 10:44:14;;;;;;;104.38;29.85;;;;;;;9.95;100.00;100842.31;8289934;28;20484;-53
2022/11/29 10:48:17;;;;;;;93.63;29.05;;;;;;;10.01;100.00;100837.25;8289755;28;20484;-52
2022/11/29 10:52:20;;;;;;;79.53;28.23;;;;;;;9.90;100.00;100848.09;8287918;28;20506;-51
2022/11/29 10:56:28;;;;;;;79.03;26.98;;;;;;;9.92;100.00;100848.81;8287934;28;20559;-52
2022/11/29 11:00:28;;;;;;;82.53;29.33;;;;;;;10.05;100.00;100845.94;8315663;28;20418;-51
2022/11/29 11:04:34;;;;;;;81.95;26.85;;;;;;;9.96;100.00;100844.03;8298222;28;20057;-53
2022/11/29 11:08:36;;;;;;;79.10;27.90;;;;;;;10.01;100.00;100839.09;8289462;28;20501;-52
2022/11/29 11:12:37;;;;;;;75.65;27.15;;;;;;;10.00;100.00;100846.34;8288959;28;20045;-53
2022/11/29 11:16:37;;;;;;;90.95;30.33;;;;;;;10.06;100.00;100849.53;8289545;28;20076;-54
2022/11/29 11:20:41;;;;;;;88.50;27.88;;;;;;;10.05;100.00;100859.47;8289315;28;20108;-54
2022/11/29 11:24:43;;;;;;;88.50;29.33;;;;;;;10.04;100.00;100855.06;8289139;28;20049;-54
2022/11/29 11:29:01;;;;;;;92.45;27.88;;;;;;;10.09;100.00;100847.44;8303064;28;20029;-51
2022/11/29 11:33:26;;;;;;;81.20;29.17;;;;;;;10.11;100.00;100847.31;8309880;28;20034;-54
2022/11/29 11:37:31;;;;;;;102.18;29.88;;;;;;;10.13;100.00;100846.22;8284074;28;20049;-53
2022/11/29 11:42:38;;;;;;;84.32;29.70;;;;;;;10.17;100.00;100853.06;8289478;28;20037;-52
2022/11/29 11:45:57;;;;;;;112.43;36.22;;;;;;;10.22;100.00;100860.78;8295243;28;20546;-54
2022/11/29 11:50:05;;;;;;;100.78;33.58;;;;;;;10.19;100.00;100867.31;8294497;28;20387;-55
2022/11/29 11:54:13;;;;;;;98.90;32.88;;;;;;;10.20;100.00;100860.91;8294640;28;20459;-51
2022/11/29 12:02:35;;;;;;;89.05;32.65;;;;;;;10.20;100.00;100846.53;8349282;27;20396;-54
2022/11/29 12:10:54;;;;;;;105.97;35.53;;;;;;;10.21;100.00;100862.59;8405119;27;20365;-54
2022/11/29 12:15:18;;;;;;;111.25;35.65;;;;;;;10.19;100.00;100861.91;8378847;28;20033;-51
2022/11/29 12:19:25;;;;;;;110.10;34.70;;;;;;;10.15;100.00;100871.22;8359312;28;20252;-54
2022/11/29 12:23:52;;;;;;;108.13;36.03;;;;;;;10.20;100.00;100873.53;8379228;28;20518;-54
2022/11/29 12:27:52;;;;;;;119.75;36.95;;;;;;;10.21;100.00;100878.81;8355009;28;20330;-53
2022/11/29 12:32:09;;;;;;;98.50;34.10;;;;;;;10.22;100.00;100882.38;8365916;28;20063;-52
2022/11/29 12:36:38;;;;;;;114.22;38.13;;;;;;;10.25;100.00;100888.41;8347552;28;20591;-51
2022/11/29 12:40:53;;;;;;;113.93;38.00;;;;;;;10.24;100.00;100883.97;8346970;28;20045;-51
2022/11/29 12:45:34;;;;;;;100.75;38.75;;;;;;;10.28;100.00;100898.91;8347028;28;20038;-53
2022/11/29 12:49:59;;;;;;;115.82;37.10;;;;;;;10.28;100.00;100904.31;8353490;28;20049;-51
2022/11/29 12:58:28;;;;;;;102.65;34.83;;;;;;;10.20;100.00;100914.06;8348980;27;20384;-52
2022/11/29 13:02:58;;;;;;;96.50;32.55;;;;;;;10.18;100.00;100916.91;8363713;28;20053;-55
2022/11/29 13:07:20;;;;;;;115.68;35.45;;;;;;;10.20;100.00;100917.63;8314812;28;20496;-55
2022/11/29 13:11:31;;;;;;;114.00;34.75;;;;;;;10.18;100.00;100919.59;8367083;28;20072;-52
2022/11/29 13:15:56;;;;;;;115.35;36.55;;;;;;;10.19;100.00;100918.63;8342584;28;20423;-53
2022/11/29 13:20:07;;;;;;;115.47;35.50;;;;;;;10.19;100.00;100926.75;8314097;28;20041;-51
2022/11/29 13:24:15;;;;;;;129.07;38.22;;;;;;;10.15;100.00;100925.25;8310913;28;20072;-53
2022/11/29 13:28:37;;;;;;;130.65;37.95;;;;;;;10.13;100.00;100919.16;8322530;28;20045;-51
2022/11/29 13:32:51;;;;;;;119.40;37.42;;;;;;;10.13;100.00;100920.97;8330551;28;20772;-53
2022/11/29 13:37:06;;;;;;;131.25;38.85;;;;;;;10.12;100.00;100936.31;8306143;28;20153;-51
2022/11/29 13:41:31;;;;;;;137.88;38.40;;;;;;;10.10;100.00;100932.91;8300041;28;20056;-50
2022/11/29 13:46:10;;;;;;;142.23;38.78;;;;;;;10.12;100.00;100922.81;8309984;28;20052;-51
2022/11/29 13:50:35;;;;;;;130.75;40.15;;;;;;;10.09;100.00;100928.47;8287338;28;20042;-53
2022/11/29 13:54:36;;;;;;;132.93;39.08;;;;;;;10.14;100.00;100923.56;8278133;28;20034;-54
2022/11/29 13:58:38;;;;;;;128.23;38.63;;;;;;;10.17;100.00;100931.41;8317994;28;20049;-52
2022/11/29 14:02:40;;;;;;;121.57;39.22;;;;;;;10.15;100.00;100930.66;8336819;28;20041;-55
2022/11/29 14:06:40;;;;;;;132.65;37.40;;;;;;;10.18;100.00;100934.97;8305100;28;20030;-51
2022/11/29 14:10:47;;;;;;;121.07;36.72;;;;;;;10.12;100.00;100933.63;8290322;28;20045;-55
2022/11/29 14:14:53;;;;;;;100.13;34.75;;;;;;;10.10;100.00;100946.41;8268739;28;20043;-52
2022/11/29 14:23:39;;;;;;;106.18;32.90;;;;;;;10.09;100.00;100951.94;8409418;27;20384;-53
2022/11/29 14:27:58;;;;;;;93.10;32.30;;;;;;;10.08;100.00;100952.91;8399381;27;20123;-53
2022/11/29 14:31:59;;;;;;;101.43;31.90;;;;;;;10.10;100.00;100949.13;8412859;27;20032;-52
2022/11/29 14:40:48;;;;;;;105.30;32.10;;;;;;;10.07;100.00;100954.78;8363107;27;20398;-51
2022/11/29 14:44:53;;;;;;;117.27;35.30;;;;;;;10.03;100.00;100969.47;8357912;28;20176;-54
2022/11/29 14:53:29;;;;;;;111.97;35.50;;;;;;;9.99;100.00;100968.00;8377865;28;20361;-54
2022/11/29 15:02:03;;;;;;;115.65;35.28;;;;;;;9.99;100.00;100971.59;8342190;27;20441;-52
2022/11/29 15:06:22;;;;;;;102.15;34.13;;;;;;;9.99;100.00;100973.41;8313213;28;20037;-51
2022/11/29 15:10:28;;;;;;;108.50;35.03;;;;;;;10.00;100.00;100964.31;8345194;28;20110;-51
2022/11/29 15:14:51;;;;;;;107.15;35.30;;;;;;;10.01;100.00;100979.56;8345579;28;20052;-53
2022/11/29 15:23:42;;;;;;;103.43;35.05;;;;;;;10.02;100.00;100975.88;8412994;27;20385;-52
2022/11/29 15:27:54;;;;;;;97.38;34.17;;;;;;;10.01;100.00;100979.56;8411806;28;20417;-54
2022/11/29 15:31:57;;;;;;;109.63;35.20;;;;;;;9.99;100.00;100984.22;8394076;28;20044;-54
2022/11/29 15:36:08;;;;;;;111.20;37.17;;;;;;;9.99;100.00;100984.22;8411553;28;20044;-50
2022/11/29 15:40:13;;;;;;;109.05;37.42;;;;;;;9.98;100.00;100988.75;8410634;28;20494;-50
2022/11/29 15:44:21;;;;;;;113.72;39.75;;;;;;;9.96;100.00;100979.94;8410933;28;20041;-50
2022/11/29 15:48:27;;;;;;;109.38;36.85;;;;;;;9.95;100.00;100990.88;8410274;28;20028;-54
2022/11/29 15:52:33;;;;;;;119.57;38.60;;;;;;;9.97;100.00;100999.69;8411624;28;20032;-54
2022/11/29 15:57:01;;;;;;;124.30;38.88;;;;;;;9.93;100.00;101001.78;8403474;28;20342;-51
2022/11/29 16:01:03;;;;;;;119.93;39.85;;;;;;;9.92;100.00;101007.31;8410743;28;20079;-51
2022/11/29 16:05:13;;;;;;;121.13;37.97;;;;;;;9.92;100.00;101007.31;8410639;28;20051;-51
2022/11/29 16:09:18;;;;;;;112.95;38.33;;;;;;;9.91;100.00;101002.88;8410614;28;20059;-52
2022/11/29 16:13:40;;;;;;;128.07;38.03;;;;;;;9.90;100.00;101017.38;8411136;28;20497;-52
2022/11/29 16:17:40;;;;;;;122.05;37.17;;;;;;;9.88;100.00;101014.78;8409878;28;20036;-53
2022/11/29 16:21:42;;;;;;;126.68;38.45;;;;;;;9.89;100.00;101012.97;8386136;28;20434;-51
2022/11/29 16:26:12;;;;;;;115.93;38.05;;;;;;;9.88;100.00;101012.09;8408687;28;20545;-54
2022/11/29 16:30:22;;;;;;;127.40;38.65;;;;;;;9.87;100.00;101017.63;8395531;28;20056;-52
2022/11/29 16:34:28;;;;;;;130.13;38.33;;;;;;;9.84;100.00;101017.88;8359794;28;20060;-51
2022/11/29 16:38:29;;;;;;;133.13;40.00;;;;;;;9.81;100.00;101018.13;8388253;28;20405;-51
2022/11/29 16:42:32;;;;;;;120.97;38.40;;;;;;;9.79;100.00;101022.81;8376456;28;20048;-52
2022/11/29 16:46:35;;;;;;;128.48;38.75;;;;;;;9.78;100.00;101024.63;8364479;28;20053;-54
2022/11/29 16:50:36;;;;;;;119.13;36.83;;;;;;;9.75;100.00;101024.00;8357047;28;20525;-53
2022/11/29 16:54:36;;;;;;;105.10;35.10;;;;;;;9.73;100.00;101026.00;8369920;28;21959;-52
2022/11/29 16:58:38;;;;;;;112.35;34.80;;;;;;;9.75;100.00;101032.97;8375281;28;20060;-53
2022/11/29 17:02:39;;;;;;;110.32;32.95;;;;;;;9.68;100.00;101036.28;8384467;28;20410;-53
2022/11/29 17:06:39;;;;;;;104.68;32.38;;;;;;;9.68;100.00;101033.59;8385976;28;20059;-51
2022/11/29 17:10:40;;;;;;;88.70;30.73;;;;;;;9.64;100.00;101037.53;8395096;28;20036;-55
2022/11/29 17:14:41;;;;;;;109.55;31.65;;;;;;;9.60;100.00;101041.44;8355363;28;20044;-53
2022/11/29 17:18:42;;;;;;;95.78;31.73;;;;;;;9.59;100.00;101035.19;8354178;28;20048;-54
2022/11/29 17:22:42;;;;;;;106.78;31.92;;;;;;;9.60;100.00;101036.03;8351363;28;20091;-53
2022/11/29 17:26:43;;;;;;;86.93;28.15;;;;;;;9.55;100.00;101039.09;8353649;28;20123;-51
2022/11/29 17:30:44;;;;;;;86.57;27.45;;;;;;;9.53;100.00;101030.28;8352822;28;20048;-53
2022/11/29 17:34:44;;;;;;;93.97;27.08;;;;;;;9.55;100.00;101043.66;8331199;28;20044;-53
2022/11/29 17:38:46;;;;;;;93.50;28.15;;;;;;;9.50;100.00;101051.25;8338931;28;20588;-51
2022/11/29 17:42:47;;;;;;;93.22;27.30;;;;;;;9.48;100.00;101054.06;8333219;28;20060;-52
2022/11/29 17:46:47;;;;;;;93.82;27.65;;;;;;;9.41;100.00;101054.66;8345478;28;20120;-52
2022/11/29 17:50:48;;;;;;;103.60;28.55;;;;;;;9.31;100.00;101059.94;8351236;28;20045;-52
2022/11/29 17:54:48;;;;;;;94.30;26.40;;;;;;;9.24;100.00;101060.53;8351172;28;20071;-53
2022/11/29 17:58:51;;;;;;;85.57;27.75;;;;;;;9.18;100.00;101069.09;8351864;28;20048;-53
2022/11/29 18:02:52;;;;;;;91.75;28.02;;;;;;;9.08;100.00;101063.53;8352308;28;20045;-55
2022/11/29 18:06:52;;;;;;;93.00;28.55;;;;;;;8.97;100.00;101062.66;8351682;28;20128;-52
2022/11/29 18:11:02;;;;;;;93.35;27.10;;;;;;;8.95;100.00;101069.97;8350894;28;20504;-51
2022/11/29 18:15:03;;;;;;;87.57;27.27;;;;;;;8.92;100.00;101071.09;8351916;28;20098;-53
2022/11/29 18:19:07;;;;;;;90.70;28.88;;;;;;;8.86;100.00;101076.94;8350609;28;20045;-53
2022/11/29 18:23:07;;;;;;;82.60;25.98;;;;;;;8.87;100.00;101078.66;8351859;28;20442;-54
2022/11/29 18:27:08;;;;;;;86.40;25.67;;;;;;;8.87;100.00;101081.34;8350681;28;20033;-51
2022/11/29 18:31:14;;;;;;;77.63;24.95;;;;;;;8.85;100.00;101077.06;8351445;28;20061;-54
2022/11/29 18:35:15;;;;;;;66.80;24.55;;;;;;;8.85;100.00;101080.63;8350664;28;20506;-54
2022/11/29 18:39:18;;;;;;;73.78;23.55;;;;;;;8.80;100.00;101081.91;8351403;28;20410;-51
2022/11/29 18:43:18;;;;;;;70.55;24.02;;;;;;;8.78;100.00;101090.13;8351050;28;20237;-55
2022/11/29 18:47:19;;;;;;;63.50;23.35;;;;;;;8.71;100.00;101085.31;8349971;28;20033;-51
2022/11/29 18:51:19;;;;;;;76.70;24.25;;;;;;;8.68;100.00;101080.16;8349595;28;20033;-53
2022/11/29 18:55:20;;;;;;;66.50;22.92;;;;;;;8.58;100.00;101081.81;8351100;28;20075;-52
2022/11/29 18:59:21;;;;;;;73.85;23.48;;;;;;;8.58;100.00;101089.91;8349643;28;20513;-52
2022/11/29 19:03:22;;;;;;;77.82;25.27;;;;;;;8.65;100.00;101093.84;8351700;28;20040;-52
2022/11/29 19:07:22;;;;;;;79.03;25.85;;;;;;;8.61;100.00;101095.06;8342664;28;20041;-55
2022/11/29 19:11:25;;;;;;;75.80;24.52;;;;;;;8.60;100.00;101096.88;8328602;28;20053;-51
2022/11/29 19:15:26;;;;;;;71.28;24.42;;;;;;;8.43;100.00;101093.72;8322288;28;20041;-52
2022/11/29 19:19:26;;;;;;;74.65;24.48;;;;;;;8.36;100.00;101097.84;8350028;28;20063;-54
2022/11/29 19:23:26;;;;;;;72.72;25.50;;;;;;;8.26;100.00;101099.50;8348356;28;20132;-54
2022/11/29 19:27:27;;;;;;;79.78;26.63;;;;;;;8.11;100.00;101103.28;8328481;28;20076;-53
2022/11/29 19:31:28;;;;;;;80.03;25.83;;;;;;;7.93;100.00;101095.53;8347672;28;20041;-51
2022/11/29 19:35:28;;;;;;;84.00;26.75;;;;;;;7.80;100.00;101100.06;8337507;28;20083;-53
2022/11/29 19:39:30;;;;;;;89.47;28.75;;;;;;;7.84;100.00;101101.56;8343249;28;20112;-53
2022/11/29 19:43:30;;;;;;;73.85;24.60;;;;;;;7.70;100.00;101109.78;8346946;28;20514;-52
2022/11/29 19:47:31;;;;;;;72.70;24.75;;;;;;;7.58;100.00;101113.31;8348989;28;20086;-55
2022/11/29 19:51:32;;;;;;;73.93;25.48;;;;;;;7.53;100.00;101112.78;8340963;28;20045;-55
2022/11/29 19:55:33;;;;;;;80.47;25.42;;;;;;;7.30;100.00;101110.84;8345620;28;20037;-52
2022/11/29 19:59:33;;;;;;;83.55;25.13;;;;;;;7.14;100.00;101120.91;8337787;28;20152;-52